sensor_id;sensor_type;location;lat;lon;timestamp;temperature;humidity
21698;DHT22;11010;49.548;11.926;2024-02-26T00:01:11;3.80;99.90
21698;DHT22;11010;49.548;11.926;2024-02-26T00:03:38;3.70;99.90
21698;DHT22;11010;49.548;11.926;2024-02-26T00:06:08;3.70;99.90
21698;DHT22;11010;49.548;11.926;2024-02-26T00:08:36;3.60;99.90
21698;DHT22;11010;49.548;11.926;2024-02-26T00:11:03;3.60;99.90
21698;DHT22;11010;49.548;11.926;2024-02-26T00:13:31;3.60;99.90
21698;DHT22;11010;49.548;11.926;2024-02-26T00:15:58;3.50;99.90
21698;DHT22;11010;49.548;11.926;2024-02-26T00:18:25;3.70;99.90
21698;DHT22;11010;49.548;11.926;2024-02-26T00:20:53;3.70;99.90
21698;DHT22;11010;49.548;11.926;2024-02-26T00:23:20;3.60;99.90
21698;DHT22;11010;49.548;11.926;2024-02-26T00:25:48;3.60;99.90
21698;DHT22;11010;49.548;11.926;2024-02-26T00:28:15;3.70;99.90
21698;DHT22;11010;49.548;11.926;2024-02-26T00:30:42;3.70;99.90
21698;DHT22;11010;49.548;11.926;2024-02-26T00:33:10;3.60;99.90
21698;DHT22;11010;49.548;11.926;2024-02-26T00:35:37;3.50;99.90
21698;DHT22;11010;49.548;11.926;2024-02-26T00:38:04;3.50;99.90
21698;DHT22;11010;49.548;11.926;2024-02-26T00:40:32;3.40;99.90
21698;DHT22;11010;49.548;11.926;2024-02-26T00:42:59;3.60;99.90
21698;DHT22;11010;49.548;11.926;2024-02-26T00:45:27;3.60;99.90
21698;DHT22;11010;49.548;11.926;2024-02-26T00:47:54;3.40;99.90
21698;DHT22;11010;49.548;11.926;2024-02-26T00:50:21;3.40;99.90
21698;DHT22;11010;49.548;11.926;2024-02-26T00:52:48;3.40;99.90
21698;DHT22;11010;49.548;11.926;2024-02-26T00:55:16;3.40;99.90
21698;DHT22;11010;49.548;11.926;2024-02-26T00:57:43;3.60;99.90
21698;DHT22;11010;49.548;11.926;2024-02-26T01:00:11;3.50;99.90
21698;DHT22;11010;49.548;11.926;2024-02-26T01:02:38;3.40;99.90
21698;DHT22;11010;49.548;11.926;2024-02-26T01:05:06;3.40;99.90
21698;DHT22;11010;49.548;11.926;2024-02-26T01:07:33;3.40;99.90
21698;DHT22;11010;49.548;11.926;2024-02-26T01:10:03;3.50;99.90
21698;DHT22;11010;49.548;11.926;2024-02-26T01:12:33;3.50;99.90
21698;DHT22;11010;49.548;11.926;2024-02-26T01:15:02;3.50;99.90
21698;DHT22;11010;49.548;11.926;2024-02-26T01:17:30;3.40;99.90
21698;DHT22;11010;49.548;11.926;2024-02-26T01:19:57;3.40;99.90
21698;DHT22;11010;49.548;11.926;2024-02-26T01:22:25;3.40;99.90
21698;DHT22;11010;49.548;11.926;2024-02-26T01:24:52;3.30;99.90
21698;DHT22;11010;49.548;11.926;2024-02-26T01:27:19;3.40;99.90
21698;DHT22;11010;49.548;11.926;2024-02-26T01:29:46;3.50;99.90
21698;DHT22;11010;49.548;11.926;2024-02-26T01:32:14;3.30;99.90
21698;DHT22;11010;49.548;11.926;2024-02-26T01:34:41;3.30;99.90
21698;DHT22;11010;49.548;11.926;2024-02-26T01:37:08;3.40;99.90
21698;DHT22;11010;49.548;11.926;2024-02-26T01:39:35;3.40;99.90
21698;DHT22;11010;49.548;11.926;2024-02-26T01:42:03;3.50;99.90
21698;DHT22;11010;49.548;11.926;2024-02-26T01:44:30;3.40;99.90
21698;DHT22;11010;49.548;11.926;2024-02-26T01:46:57;3.20;99.90
21698;DHT22;11010;49.548;11.926;2024-02-26T01:49:25;3.30;99.90
21698;DHT22;11010;49.548;11.926;2024-02-26T01:51:52;3.20;99.90
21698;DHT22;11010;49.548;11.926;2024-02-26T01:54:20;3.20;99.90
21698;DHT22;11010;49.548;11.926;2024-02-26T01:56:49;3.20;99.90
21698;DHT22;11010;49.548;11.926;2024-02-26T01:59:17;3.30;99.90
21698;DHT22;11010;49.548;11.926;2024-02-26T02:01:47;3.20;99.90
21698;DHT22;11010;49.548;11.926;2024-02-26T02:04:16;3.20;99.90
21698;DHT22;11010;49.548;11.926;2024-02-26T02:06:45;3.30;99.90
21698;DHT22;11010;49.548;11.926;2024-02-26T02:09:13;3.40;99.90
21698;DHT22;11010;49.548;11.926;2024-02-26T02:11:41;3.30;99.90
21698;DHT22;11010;49.548;11.926;2024-02-26T02:14:09;3.20;99.90
21698;DHT22;11010;49.548;11.926;2024-02-26T02:16:36;3.40;99.90
21698;DHT22;11010;49.548;11.926;2024-02-26T02:19:03;3.30;99.90
21698;DHT22;11010;49.548;11.926;2024-02-26T02:21:31;3.10;99.90
21698;DHT22;11010;49.548;11.926;2024-02-26T02:23:58;3.20;99.90
21698;DHT22;11010;49.548;11.926;2024-02-26T02:26:25;3.30;99.90
21698;DHT22;11010;49.548;11.926;2024-02-26T02:28:53;3.30;99.90
21698;DHT22;11010;49.548;11.926;2024-02-26T02:31:20;3.20;99.90
21698;DHT22;11010;49.548;11.926;2024-02-26T02:33:48;3.20;99.90
21698;DHT22;11010;49.548;11.926;2024-02-26T02:36:16;3.20;99.90
21698;DHT22;11010;49.548;11.926;2024-02-26T02:38:50;3.10;99.90
21698;DHT22;11010;49.548;11.926;2024-02-26T02:41:18;3.20;99.90
21698;DHT22;11010;49.548;11.926;2024-02-26T02:43:46;3.10;99.90
21698;DHT22;11010;49.548;11.926;2024-02-26T02:46:13;3.00;99.90
21698;DHT22;11010;49.548;11.926;2024-02-26T02:48:42;3.10;99.90
21698;DHT22;11010;49.548;11.926;2024-02-26T02:51:10;2.90;99.90
21698;DHT22;11010;49.548;11.926;2024-02-26T02:53:38;2.80;99.90
21698;DHT22;11010;49.548;11.926;2024-02-26T02:56:05;2.90;99.90
21698;DHT22;11010;49.548;11.926;2024-02-26T02:58:32;3.00;99.90
21698;DHT22;11010;49.548;11.926;2024-02-26T03:01:00;3.10;99.90
21698;DHT22;11010;49.548;11.926;2024-02-26T03:03:28;3.10;99.90
21698;DHT22;11010;49.548;11.926;2024-02-26T03:05:56;3.10;99.90
21698;DHT22;11010;49.548;11.926;2024-02-26T03:08:24;3.00;99.90
21698;DHT22;11010;49.548;11.926;2024-02-26T03:10:53;3.10;99.90
21698;DHT22;11010;49.548;11.926;2024-02-26T03:13:20;3.00;99.90
21698;DHT22;11010;49.548;11.926;2024-02-26T03:15:47;3.00;99.90
21698;DHT22;11010;49.548;11.926;2024-02-26T03:18:15;3.00;99.90
21698;DHT22;11010;49.548;11.926;2024-02-26T03:20:42;3.00;99.90
21698;DHT22;11010;49.548;11.926;2024-02-26T03:23:09;2.90;99.90
21698;DHT22;11010;49.548;11.926;2024-02-26T03:25:41;3.00;99.90
21698;DHT22;11010;49.548;11.926;2024-02-26T03:28:08;2.90;99.90
21698;DHT22;11010;49.548;11.926;2024-02-26T03:30:35;2.90;99.90
21698;DHT22;11010;49.548;11.926;2024-02-26T03:33:02;2.90;99.90
21698;DHT22;11010;49.548;11.926;2024-02-26T03:35:30;2.90;99.90
21698;DHT22;11010;49.548;11.926;2024-02-26T03:37:57;2.80;99.90
21698;DHT22;11010;49.548;11.926;2024-02-26T03:40:25;2.70;99.90
21698;DHT22;11010;49.548;11.926;2024-02-26T03:42:52;2.70;99.90
21698;DHT22;11010;49.548;11.926;2024-02-26T03:45:21;2.80;99.90
21698;DHT22;11010;49.548;11.926;2024-02-26T03:47:48;2.90;99.90
21698;DHT22;11010;49.548;11.926;2024-02-26T03:50:16;2.90;99.90
21698;DHT22;11010;49.548;11.926;2024-02-26T03:52:43;2.90;99.90
21698;DHT22;11010;49.548;11.926;2024-02-26T03:55:10;2.80;99.90
21698;DHT22;11010;49.548;11.926;2024-02-26T03:57:38;2.60;99.90
21698;DHT22;11010;49.548;11.926;2024-02-26T04:00:06;2.70;99.90
21698;DHT22;11010;49.548;11.926;2024-02-26T04:02:39;2.80;99.90
21698;DHT22;11010;49.548;11.926;2024-02-26T04:05:12;2.80;99.90
21698;DHT22;11010;49.548;11.926;2024-02-26T04:07:40;2.60;99.90
21698;DHT22;11010;49.548;11.926;2024-02-26T04:10:12;2.60;99.90
21698;DHT22;11010;49.548;11.926;2024-02-26T04:12:40;2.80;99.90
21698;DHT22;11010;49.548;11.926;2024-02-26T04:15:09;2.70;99.90
21698;DHT22;11010;49.548;11.926;2024-02-26T04:17:37;2.80;99.90
21698;DHT22;11010;49.548;11.926;2024-02-26T04:20:05;2.90;99.90
21698;DHT22;11010;49.548;11.926;2024-02-26T04:22:32;2.90;99.90
21698;DHT22;11010;49.548;11.926;2024-02-26T04:25:00;2.80;99.90
21698;DHT22;11010;49.548;11.926;2024-02-26T04:27:27;2.80;99.90
21698;DHT22;11010;49.548;11.926;2024-02-26T04:29:55;2.70;99.90
21698;DHT22;11010;49.548;11.926;2024-02-26T04:32:22;2.70;99.90
21698;DHT22;11010;49.548;11.926;2024-02-26T04:34:49;2.70;99.90
21698;DHT22;11010;49.548;11.926;2024-02-26T04:37:17;2.70;99.90
21698;DHT22;11010;49.548;11.926;2024-02-26T04:39:44;2.70;99.90
21698;DHT22;11010;49.548;11.926;2024-02-26T04:42:16;2.80;99.90
21698;DHT22;11010;49.548;11.926;2024-02-26T04:44:44;2.70;99.90
21698;DHT22;11010;49.548;11.926;2024-02-26T04:47:11;2.70;99.90
21698;DHT22;11010;49.548;11.926;2024-02-26T04:49:38;2.70;99.90
21698;DHT22;11010;49.548;11.926;2024-02-26T04:52:06;2.70;99.90
21698;DHT22;11010;49.548;11.926;2024-02-26T04:54:33;2.60;99.90
21698;DHT22;11010;49.548;11.926;2024-02-26T04:57:00;2.70;99.90
21698;DHT22;11010;49.548;11.926;2024-02-26T04:59:27;2.80;99.90
21698;DHT22;11010;49.548;11.926;2024-02-26T05:01:55;2.70;99.90
21698;DHT22;11010;49.548;11.926;2024-02-26T05:04:22;2.80;99.90
21698;DHT22;11010;49.548;11.926;2024-02-26T05:06:49;2.70;99.90
21698;DHT22;11010;49.548;11.926;2024-02-26T05:09:17;2.70;99.90
21698;DHT22;11010;49.548;11.926;2024-02-26T05:11:44;2.80;99.90
21698;DHT22;11010;49.548;11.926;2024-02-26T05:14:11;2.80;99.90
21698;DHT22;11010;49.548;11.926;2024-02-26T05:16:39;2.70;99.90
21698;DHT22;11010;49.548;11.926;2024-02-26T05:19:06;2.70;99.90
21698;DHT22;11010;49.548;11.926;2024-02-26T05:21:34;2.60;99.90
21698;DHT22;11010;49.548;11.926;2024-02-26T05:24:01;2.70;99.90
21698;DHT22;11010;49.548;11.926;2024-02-26T05:26:28;2.80;99.90
21698;DHT22;11010;49.548;11.926;2024-02-26T05:28:55;2.30;99.90
21698;DHT22;11010;49.548;11.926;2024-02-26T05:31:28;2.40;99.90
21698;DHT22;11010;49.548;11.926;2024-02-26T05:33:55;2.60;99.90
21698;DHT22;11010;49.548;11.926;2024-02-26T05:36:23;2.60;99.90
21698;DHT22;11010;49.548;11.926;2024-02-26T05:38:51;2.60;99.90
21698;DHT22;11010;49.548;11.926;2024-02-26T05:41:24;2.70;99.90
21698;DHT22;11010;49.548;11.926;2024-02-26T05:43:53;2.60;99.90
21698;DHT22;11010;49.548;11.926;2024-02-26T05:46:21;2.60;99.90
21698;DHT22;11010;49.548;11.926;2024-02-26T05:48:52;2.70;99.90
21698;DHT22;11010;49.548;11.926;2024-02-26T05:51:23;2.60;99.90
21698;DHT22;11010;49.548;11.926;2024-02-26T05:53:50;2.60;99.90
21698;DHT22;11010;49.548;11.926;2024-02-26T05:56:22;2.70;99.90
21698;DHT22;11010;49.548;11.926;2024-02-26T05:58:50;2.80;99.90
21698;DHT22;11010;49.548;11.926;2024-02-26T06:01:17;2.70;99.90
21698;DHT22;11010;49.548;11.926;2024-02-26T06:03:45;2.70;99.90
21698;DHT22;11010;49.548;11.926;2024-02-26T06:06:12;2.70;99.90
21698;DHT22;11010;49.548;11.926;2024-02-26T06:08:42;2.70;99.90
21698;DHT22;11010;49.548;11.926;2024-02-26T06:11:09;2.70;99.90
21698;DHT22;11010;49.548;11.926;2024-02-26T06:13:37;2.80;99.90
21698;DHT22;11010;49.548;11.926;2024-02-26T06:16:04;2.80;99.90
21698;DHT22;11010;49.548;11.926;2024-02-26T06:18:31;2.70;99.90
21698;DHT22;11010;49.548;11.926;2024-02-26T06:20:59;2.70;99.90
21698;DHT22;11010;49.548;11.926;2024-02-26T06:23:26;2.60;99.90
21698;DHT22;11010;49.548;11.926;2024-02-26T06:25:54;2.60;99.90
21698;DHT22;11010;49.548;11.926;2024-02-26T06:28:21;2.70;99.90
21698;DHT22;11010;49.548;11.926;2024-02-26T06:30:48;2.80;99.90
21698;DHT22;11010;49.548;11.926;2024-02-26T06:33:17;2.80;99.90
21698;DHT22;11010;49.548;11.926;2024-02-26T06:35:44;2.70;99.90
21698;DHT22;11010;49.548;11.926;2024-02-26T06:38:12;2.60;99.90
21698;DHT22;11010;49.548;11.926;2024-02-26T06:40:40;2.60;99.90
21698;DHT22;11010;49.548;11.926;2024-02-26T06:43:08;2.70;99.90
21698;DHT22;11010;49.548;11.926;2024-02-26T06:45:35;2.70;99.90
21698;DHT22;11010;49.548;11.926;2024-02-26T06:48:02;2.70;99.90
21698;DHT22;11010;49.548;11.926;2024-02-26T06:50:30;2.80;99.90
21698;DHT22;11010;49.548;11.926;2024-02-26T06:52:57;2.80;99.90
21698;DHT22;11010;49.548;11.926;2024-02-26T06:55:24;2.80;99.90
21698;DHT22;11010;49.548;11.926;2024-02-26T06:57:51;2.80;99.90
21698;DHT22;11010;49.548;11.926;2024-02-26T07:00:19;2.80;99.90
21698;DHT22;11010;49.548;11.926;2024-02-26T07:02:46;2.80;99.90
21698;DHT22;11010;49.548;11.926;2024-02-26T07:05:13;2.90;99.90
21698;DHT22;11010;49.548;11.926;2024-02-26T07:07:41;2.90;99.90
21698;DHT22;11010;49.548;11.926;2024-02-26T07:10:08;2.90;99.90
21698;DHT22;11010;49.548;11.926;2024-02-26T07:12:36;2.90;99.90
21698;DHT22;11010;49.548;11.926;2024-02-26T07:15:03;2.90;99.90
21698;DHT22;11010;49.548;11.926;2024-02-26T07:17:31;2.90;99.90
21698;DHT22;11010;49.548;11.926;2024-02-26T07:20:01;2.90;99.90
21698;DHT22;11010;49.548;11.926;2024-02-26T07:22:36;2.90;99.90
21698;DHT22;11010;49.548;11.926;2024-02-26T07:25:03;2.80;99.90
21698;DHT22;11010;49.548;11.926;2024-02-26T07:27:31;2.90;99.90
21698;DHT22;11010;49.548;11.926;2024-02-26T07:29:58;2.90;99.90
21698;DHT22;11010;49.548;11.926;2024-02-26T07:32:25;3.00;99.90
21698;DHT22;11010;49.548;11.926;2024-02-26T07:34:52;3.00;99.90
21698;DHT22;11010;49.548;11.926;2024-02-26T07:37:20;3.00;99.90
21698;DHT22;11010;49.548;11.926;2024-02-26T07:39:47;2.90;99.90
21698;DHT22;11010;49.548;11.926;2024-02-26T07:42:14;3.00;99.90
21698;DHT22;11010;49.548;11.926;2024-02-26T07:44:42;3.00;99.90
21698;DHT22;11010;49.548;11.926;2024-02-26T07:47:10;2.90;99.90
21698;DHT22;11010;49.548;11.926;2024-02-26T07:49:37;3.00;99.90
21698;DHT22;11010;49.548;11.926;2024-02-26T07:52:06;3.10;99.90
21698;DHT22;11010;49.548;11.926;2024-02-26T07:54:33;3.10;99.90
21698;DHT22;11010;49.548;11.926;2024-02-26T07:57:00;3.10;99.90
21698;DHT22;11010;49.548;11.926;2024-02-26T07:59:29;3.10;99.90
21698;DHT22;11010;49.548;11.926;2024-02-26T08:01:56;3.20;99.90
21698;DHT22;11010;49.548;11.926;2024-02-26T08:04:25;3.30;99.90
21698;DHT22;11010;49.548;11.926;2024-02-26T08:06:54;3.30;99.90
21698;DHT22;11010;49.548;11.926;2024-02-26T08:09:21;3.30;99.90
21698;DHT22;11010;49.548;11.926;2024-02-26T08:11:49;3.30;99.90
21698;DHT22;11010;49.548;11.926;2024-02-26T08:14:16;3.30;99.90
21698;DHT22;11010;49.548;11.926;2024-02-26T08:16:43;3.40;99.90
21698;DHT22;11010;49.548;11.926;2024-02-26T08:19:11;3.50;99.90
21698;DHT22;11010;49.548;11.926;2024-02-26T08:21:41;3.60;99.90
21698;DHT22;11010;49.548;11.926;2024-02-26T08:24:09;3.70;99.90
21698;DHT22;11010;49.548;11.926;2024-02-26T08:26:36;3.70;99.90
21698;DHT22;11010;49.548;11.926;2024-02-26T08:29:04;3.70;99.90
21698;DHT22;11010;49.548;11.926;2024-02-26T08:31:31;3.80;99.90
21698;DHT22;11010;49.548;11.926;2024-02-26T08:33:58;3.80;99.90
21698;DHT22;11010;49.548;11.926;2024-02-26T08:36:27;3.80;99.90
21698;DHT22;11010;49.548;11.926;2024-02-26T08:38:55;3.80;99.90
21698;DHT22;11010;49.548;11.926;2024-02-26T08:41:22;3.80;99.90
21698;DHT22;11010;49.548;11.926;2024-02-26T08:43:49;3.80;99.90
21698;DHT22;11010;49.548;11.926;2024-02-26T08:46:17;3.80;99.90
21698;DHT22;11010;49.548;11.926;2024-02-26T08:48:44;3.90;99.90
21698;DHT22;11010;49.548;11.926;2024-02-26T08:51:12;4.10;99.90
21698;DHT22;11010;49.548;11.926;2024-02-26T08:53:40;4.10;99.90
21698;DHT22;11010;49.548;11.926;2024-02-26T08:56:10;4.20;99.90
21698;DHT22;11010;49.548;11.926;2024-02-26T08:58:45;4.20;99.90
21698;DHT22;11010;49.548;11.926;2024-02-26T09:01:15;4.30;99.90
21698;DHT22;11010;49.548;11.926;2024-02-26T09:03:43;4.40;99.90
21698;DHT22;11010;49.548;11.926;2024-02-26T09:06:14;4.40;99.90
21698;DHT22;11010;49.548;11.926;2024-02-26T09:08:41;4.40;99.90
21698;DHT22;11010;49.548;11.926;2024-02-26T09:11:09;4.50;99.90
21698;DHT22;11010;49.548;11.926;2024-02-26T09:13:41;4.60;99.90
21698;DHT22;11010;49.548;11.926;2024-02-26T09:16:09;4.80;99.90
21698;DHT22;11010;49.548;11.926;2024-02-26T09:18:36;4.90;99.90
21698;DHT22;11010;49.548;11.926;2024-02-26T09:21:05;5.10;99.90
21698;DHT22;11010;49.548;11.926;2024-02-26T09:23:33;5.20;99.90
21698;DHT22;11010;49.548;11.926;2024-02-26T09:26:02;5.10;99.90
21698;DHT22;11010;49.548;11.926;2024-02-26T09:28:29;5.20;99.90
21698;DHT22;11010;49.548;11.926;2024-02-26T09:31:01;5.30;99.90
21698;DHT22;11010;49.548;11.926;2024-02-26T09:33:29;5.50;99.90
21698;DHT22;11010;49.548;11.926;2024-02-26T09:35:56;5.50;99.90
21698;DHT22;11010;49.548;11.926;2024-02-26T09:38:23;5.60;99.90
21698;DHT22;11010;49.548;11.926;2024-02-26T09:40:51;5.90;99.90
21698;DHT22;11010;49.548;11.926;2024-02-26T09:43:21;5.90;99.90
21698;DHT22;11010;49.548;11.926;2024-02-26T09:45:53;5.90;99.90
21698;DHT22;11010;49.548;11.926;2024-02-26T09:48:22;5.90;99.90
21698;DHT22;11010;49.548;11.926;2024-02-26T09:50:51;5.70;99.90
21698;DHT22;11010;49.548;11.926;2024-02-26T09:53:22;5.90;99.90
21698;DHT22;11010;49.548;11.926;2024-02-26T09:55:49;5.90;99.90
21698;DHT22;11010;49.548;11.926;2024-02-26T09:58:17;5.90;99.90
21698;DHT22;11010;49.548;11.926;2024-02-26T10:00:51;5.90;99.90
21698;DHT22;11010;49.548;11.926;2024-02-26T10:03:21;6.00;99.90
21698;DHT22;11010;49.548;11.926;2024-02-26T10:05:51;6.10;99.90
21698;DHT22;11010;49.548;11.926;2024-02-26T10:08:23;6.00;99.90
21698;DHT22;11010;49.548;11.926;2024-02-26T10:10:51;6.10;99.90
21698;DHT22;11010;49.548;11.926;2024-02-26T10:13:18;6.00;99.90
21698;DHT22;11010;49.548;11.926;2024-02-26T10:15:47;6.00;99.90
21698;DHT22;11010;49.548;11.926;2024-02-26T10:18:14;6.00;99.90
21698;DHT22;11010;49.548;11.926;2024-02-26T10:20:42;6.00;99.90
21698;DHT22;11010;49.548;11.926;2024-02-26T10:23:10;6.00;99.90
21698;DHT22;11010;49.548;11.926;2024-02-26T10:25:37;6.00;99.90
21698;DHT22;11010;49.548;11.926;2024-02-26T10:28:04;6.00;99.90
21698;DHT22;11010;49.548;11.926;2024-02-26T10:30:32;6.00;99.90
21698;DHT22;11010;49.548;11.926;2024-02-26T10:33:03;6.00;99.90
21698;DHT22;11010;49.548;11.926;2024-02-26T10:35:31;6.10;99.90
21698;DHT22;11010;49.548;11.926;2024-02-26T10:37:59;6.30;99.90
21698;DHT22;11010;49.548;11.926;2024-02-26T10:40:26;6.30;99.90
21698;DHT22;11010;49.548;11.926;2024-02-26T10:42:53;6.40;99.90
21698;DHT22;11010;49.548;11.926;2024-02-26T10:45:21;6.60;99.90
21698;DHT22;11010;49.548;11.926;2024-02-26T10:47:48;6.70;99.90
21698;DHT22;11010;49.548;11.926;2024-02-26T10:50:16;6.80;99.90
21698;DHT22;11010;49.548;11.926;2024-02-26T10:52:44;6.80;99.90
21698;DHT22;11010;49.548;11.926;2024-02-26T10:55:17;6.80;99.90
21698;DHT22;11010;49.548;11.926;2024-02-26T10:57:48;6.60;99.90
21698;DHT22;11010;49.548;11.926;2024-02-26T11:00:16;6.70;99.90
21698;DHT22;11010;49.548;11.926;2024-02-26T11:02:45;6.80;99.90
21698;DHT22;11010;49.548;11.926;2024-02-26T11:05:15;6.80;99.90
21698;DHT22;11010;49.548;11.926;2024-02-26T11:07:44;6.90;99.90
21698;DHT22;11010;49.548;11.926;2024-02-26T11:10:15;6.90;99.90
21698;DHT22;11010;49.548;11.926;2024-02-26T11:12:44;7.10;99.90
21698;DHT22;11010;49.548;11.926;2024-02-26T11:15:15;7.00;99.90
21698;DHT22;11010;49.548;11.926;2024-02-26T11:17:44;7.10;99.90
21698;DHT22;11010;49.548;11.926;2024-02-26T11:20:14;7.20;99.90
21698;DHT22;11010;49.548;11.926;2024-02-26T11:22:41;7.30;99.90
21698;DHT22;11010;49.548;11.926;2024-02-26T11:25:09;7.20;99.90
21698;DHT22;11010;49.548;11.926;2024-02-26T11:27:41;7.20;99.90
21698;DHT22;11010;49.548;11.926;2024-02-26T11:30:10;7.20;99.90
21698;DHT22;11010;49.548;11.926;2024-02-26T11:32:39;7.20;99.90
21698;DHT22;11010;49.548;11.926;2024-02-26T11:35:07;7.30;99.90
21698;DHT22;11010;49.548;11.926;2024-02-26T11:37:35;7.50;99.90
21698;DHT22;11010;49.548;11.926;2024-02-26T11:40:11;7.60;99.90
21698;DHT22;11010;49.548;11.926;2024-02-26T11:42:45;7.60;99.90
21698;DHT22;11010;49.548;11.926;2024-02-26T11:48:12;7.60;99.90
21698;DHT22;11010;49.548;11.926;2024-02-26T11:50:47;7.80;99.90
21698;DHT22;11010;49.548;11.926;2024-02-26T11:53:31;8.00;99.90
21698;DHT22;11010;49.548;11.926;2024-02-26T11:58:44;8.30;99.90
21698;DHT22;11010;49.548;11.926;2024-02-26T12:01:46;8.50;99.90
21698;DHT22;11010;49.548;11.926;2024-02-26T12:06:53;8.40;99.90
21698;DHT22;11010;49.548;11.926;2024-02-26T12:09:38;8.60;99.90
21698;DHT22;11010;49.548;11.926;2024-02-26T12:12:07;8.60;99.90
21698;DHT22;11010;49.548;11.926;2024-02-26T12:14:52;8.60;99.90
21698;DHT22;11010;49.548;11.926;2024-02-26T12:17:23;8.40;99.90
21698;DHT22;11010;49.548;11.926;2024-02-26T12:19:51;8.40;99.90
21698;DHT22;11010;49.548;11.926;2024-02-26T12:22:20;8.40;99.90
21698;DHT22;11010;49.548;11.926;2024-02-26T12:24:48;8.30;99.90
21698;DHT22;11010;49.548;11.926;2024-02-26T12:27:25;8.20;99.90
21698;DHT22;11010;49.548;11.926;2024-02-26T12:29:53;8.20;99.90
21698;DHT22;11010;49.548;11.926;2024-02-26T12:32:20;8.30;99.90
21698;DHT22;11010;49.548;11.926;2024-02-26T12:34:48;8.30;99.90
21698;DHT22;11010;49.548;11.926;2024-02-26T12:37:16;8.30;99.90
21698;DHT22;11010;49.548;11.926;2024-02-26T12:39:44;8.20;99.90
21698;DHT22;11010;49.548;11.926;2024-02-26T12:42:14;8.30;99.90
21698;DHT22;11010;49.548;11.926;2024-02-26T12:44:41;8.50;99.90
21698;DHT22;11010;49.548;11.926;2024-02-26T12:47:09;8.60;99.90
21698;DHT22;11010;49.548;11.926;2024-02-26T12:49:41;8.90;99.90
21698;DHT22;11010;49.548;11.926;2024-02-26T12:52:08;8.90;99.90
21698;DHT22;11010;49.548;11.926;2024-02-26T12:54:36;9.00;99.90
21698;DHT22;11010;49.548;11.926;2024-02-26T12:57:07;9.20;99.90
21698;DHT22;11010;49.548;11.926;2024-02-26T12:59:36;9.30;99.90
21698;DHT22;11010;49.548;11.926;2024-02-26T13:02:04;9.80;99.90
21698;DHT22;11010;49.548;11.926;2024-02-26T13:04:34;10.20;99.90
21698;DHT22;11010;49.548;11.926;2024-02-26T13:07:05;10.50;99.90
21698;DHT22;11010;49.548;11.926;2024-02-26T13:09:34;10.90;99.90
21698;DHT22;11010;49.548;11.926;2024-02-26T13:12:06;11.40;99.90
21698;DHT22;11010;49.548;11.926;2024-02-26T13:14:34;11.60;99.90
21698;DHT22;11010;49.548;11.926;2024-02-26T13:17:02;11.70;99.90
21698;DHT22;11010;49.548;11.926;2024-02-26T13:19:30;12.10;99.90
21698;DHT22;11010;49.548;11.926;2024-02-26T13:22:07;12.20;99.90
21698;DHT22;11010;49.548;11.926;2024-02-26T13:24:35;12.70;99.90
21698;DHT22;11010;49.548;11.926;2024-02-26T13:27:03;13.00;99.90
21698;DHT22;11010;49.548;11.926;2024-02-26T13:29:32;13.40;99.90
21698;DHT22;11010;49.548;11.926;2024-02-26T13:32:00;13.20;99.90
21698;DHT22;11010;49.548;11.926;2024-02-26T13:34:28;12.50;99.90
21698;DHT22;11010;49.548;11.926;2024-02-26T13:36:58;12.60;99.90
21698;DHT22;11010;49.548;11.926;2024-02-26T13:39:27;12.90;99.90
21698;DHT22;11010;49.548;11.926;2024-02-26T13:41:55;13.00;99.90
21698;DHT22;11010;49.548;11.926;2024-02-26T13:44:24;12.80;99.90
21698;DHT22;11010;49.548;11.926;2024-02-26T13:46:51;12.70;99.90
21698;DHT22;11010;49.548;11.926;2024-02-26T13:49:18;12.80;99.90
21698;DHT22;11010;49.548;11.926;2024-02-26T13:51:46;13.20;99.90
21698;DHT22;11010;49.548;11.926;2024-02-26T13:54:13;12.80;99.90
21698;DHT22;11010;49.548;11.926;2024-02-26T13:56:42;12.50;99.90
21698;DHT22;11010;49.548;11.926;2024-02-26T13:59:13;12.40;99.90
21698;DHT22;11010;49.548;11.926;2024-02-26T14:01:40;12.10;99.90
21698;DHT22;11010;49.548;11.926;2024-02-26T14:04:07;12.10;99.90
21698;DHT22;11010;49.548;11.926;2024-02-26T14:06:36;12.20;99.90
21698;DHT22;11010;49.548;11.926;2024-02-26T14:09:04;12.20;99.90
21698;DHT22;11010;49.548;11.926;2024-02-26T14:11:31;12.00;99.90
21698;DHT22;11010;49.548;11.926;2024-02-26T14:13:59;11.80;99.90
21698;DHT22;11010;49.548;11.926;2024-02-26T14:16:26;11.60;99.90
21698;DHT22;11010;49.548;11.926;2024-02-26T14:18:56;11.10;99.90
21698;DHT22;11010;49.548;11.926;2024-02-26T14:21:24;10.70;99.90
21698;DHT22;11010;49.548;11.926;2024-02-26T14:23:51;10.40;99.90
21698;DHT22;11010;49.548;11.926;2024-02-26T14:26:19;10.70;99.90
21698;DHT22;11010;49.548;11.926;2024-02-26T14:28:47;11.30;99.90
21698;DHT22;11010;49.548;11.926;2024-02-26T14:31:17;11.50;99.90
21698;DHT22;11010;49.548;11.926;2024-02-26T14:33:45;11.10;99.90
21698;DHT22;11010;49.548;11.926;2024-02-26T14:36:12;11.30;99.90
21698;DHT22;11010;49.548;11.926;2024-02-26T14:38:39;11.10;99.90
21698;DHT22;11010;49.548;11.926;2024-02-26T14:41:07;11.00;99.90
21698;DHT22;11010;49.548;11.926;2024-02-26T14:43:35;10.60;99.90
21698;DHT22;11010;49.548;11.926;2024-02-26T14:46:02;10.50;99.90
21698;DHT22;11010;49.548;11.926;2024-02-26T14:48:30;10.70;99.90
21698;DHT22;11010;49.548;11.926;2024-02-26T14:50:59;10.90;99.90
21698;DHT22;11010;49.548;11.926;2024-02-26T14:53:27;10.40;99.90
21698;DHT22;11010;49.548;11.926;2024-02-26T14:55:54;10.10;99.90
21698;DHT22;11010;49.548;11.926;2024-02-26T14:58:21;10.00;99.90
21698;DHT22;11010;49.548;11.926;2024-02-26T15:00:48;9.70;99.90
21698;DHT22;11010;49.548;11.926;2024-02-26T15:03:16;9.80;99.90
21698;DHT22;11010;49.548;11.926;2024-02-26T15:05:44;9.60;99.90
21698;DHT22;11010;49.548;11.926;2024-02-26T15:08:11;9.50;99.90
21698;DHT22;11010;49.548;11.926;2024-02-26T15:10:43;9.50;99.90
21698;DHT22;11010;49.548;11.926;2024-02-26T15:13:15;9.30;99.90
21698;DHT22;11010;49.548;11.926;2024-02-26T15:15:45;9.20;99.90
21698;DHT22;11010;49.548;11.926;2024-02-26T15:18:12;9.20;99.90
21698;DHT22;11010;49.548;11.926;2024-02-26T15:20:43;9.00;99.90
21698;DHT22;11010;49.548;11.926;2024-02-26T15:23:11;8.90;99.90
21698;DHT22;11010;49.548;11.926;2024-02-26T15:25:39;8.70;99.90
21698;DHT22;11010;49.548;11.926;2024-02-26T15:28:08;8.60;99.90
21698;DHT22;11010;49.548;11.926;2024-02-26T15:30:38;8.60;99.90
21698;DHT22;11010;49.548;11.926;2024-02-26T15:33:05;8.60;99.90
21698;DHT22;11010;49.548;11.926;2024-02-26T15:35:33;8.60;99.90
21698;DHT22;11010;49.548;11.926;2024-02-26T15:38:00;8.60;99.90
21698;DHT22;11010;49.548;11.926;2024-02-26T15:40:28;8.50;99.90
21698;DHT22;11010;49.548;11.926;2024-02-26T15:42:55;8.50;99.90
21698;DHT22;11010;49.548;11.926;2024-02-26T15:45:22;8.40;99.90